sensor_id;sensor_type;location;lat;lon;timestamp;temperature;humidity
28654;DHT22;24320;56.980;24.336;2022-12-07T00:01:20;-1.10;99.90
28654;DHT22;24320;56.980;24.336;2022-12-07T00:03:49;-1.10;99.90
28654;DHT22;24320;56.980;24.336;2022-12-07T00:06:17;-1.10;99.90
28654;DHT22;24320;56.980;24.336;2022-12-07T00:08:45;-1.10;99.90
28654;DHT22;24320;56.980;24.336;2022-12-07T00:11:15;-1.10;99.90
28654;DHT22;24320;56.980;24.336;2022-12-07T00:13:42;-1.10;99.90
28654;DHT22;24320;56.980;24.336;2022-12-07T00:16:15;-1.20;99.90
28654;DHT22;24320;56.980;24.336;2022-12-07T00:18:43;-1.20;99.90
28654;DHT22;24320;56.980;24.336;2022-12-07T00:21:13;-1.20;99.90
28654;DHT22;24320;56.980;24.336;2022-12-07T00:23:41;-1.20;99.90
28654;DHT22;24320;56.980;24.336;2022-12-07T00:26:13;-1.10;99.90
28654;DHT22;24320;56.980;24.336;2022-12-07T00:28:40;-1.10;99.90
28654;DHT22;24320;56.980;24.336;2022-12-07T00:31:10;-1.20;99.90
28654;DHT22;24320;56.980;24.336;2022-12-07T00:33:38;-1.10;99.90
28654;DHT22;24320;56.980;24.336;2022-12-07T00:36:11;-1.10;99.90
28654;DHT22;24320;56.980;24.336;2022-12-07T00:38:40;-1.10;99.90
28654;DHT22;24320;56.980;24.336;2022-12-07T00:41:15;-1.20;99.90
28654;DHT22;24320;56.980;24.336;2022-12-07T00:43:46;-1.20;99.90
28654;DHT22;24320;56.980;24.336;2022-12-07T00:46:15;-1.20;99.90
28654;DHT22;24320;56.980;24.336;2022-12-07T00:48:42;-1.20;99.90
28654;DHT22;24320;56.980;24.336;2022-12-07T00:51:14;-1.20;99.90
28654;DHT22;24320;56.980;24.336;2022-12-07T00:53:41;-1.20;99.90
28654;DHT22;24320;56.980;24.336;2022-12-07T00:56:13;-1.20;99.90
28654;DHT22;24320;56.980;24.336;2022-12-07T00:58:41;-1.20;99.90
28654;DHT22;24320;56.980;24.336;2022-12-07T01:01:09;-1.20;99.90
28654;DHT22;24320;56.980;24.336;2022-12-07T01:03:37;-1.20;99.90
28654;DHT22;24320;56.980;24.336;2022-12-07T01:06:05;-1.20;99.90
28654;DHT22;24320;56.980;24.336;2022-12-07T01:08:33;-1.20;99.90
28654;DHT22;24320;56.980;24.336;2022-12-07T01:11:06;-1.10;99.90
28654;DHT22;24320;56.980;24.336;2022-12-07T01:13:34;-1.20;99.90
28654;DHT22;24320;56.980;24.336;2022-12-07T01:16:04;-1.20;99.90
28654;DHT22;24320;56.980;24.336;2022-12-07T01:18:34;-1.30;99.90
28654;DHT22;24320;56.980;24.336;2022-12-07T01:21:04;-1.30;99.90
28654;DHT22;24320;56.980;24.336;2022-12-07T01:23:33;-1.20;99.90
28654;DHT22;24320;56.980;24.336;2022-12-07T01:26:03;-1.20;99.90
28654;DHT22;24320;56.980;24.336;2022-12-07T01:28:30;-1.20;99.90
28654;DHT22;24320;56.980;24.336;2022-12-07T01:30:59;-1.20;99.90
28654;DHT22;24320;56.980;24.336;2022-12-07T01:33:29;-1.20;99.90
28654;DHT22;24320;56.980;24.336;2022-12-07T01:36:08;-1.20;99.90
28654;DHT22;24320;56.980;24.336;2022-12-07T01:38:39;-1.20;99.90
28654;DHT22;24320;56.980;24.336;2022-12-07T01:41:06;-1.20;99.90
28654;DHT22;24320;56.980;24.336;2022-12-07T01:43:34;-1.20;99.90
28654;DHT22;24320;56.980;24.336;2022-12-07T01:46:02;-1.20;99.90
28654;DHT22;24320;56.980;24.336;2022-12-07T01:48:41;-1.20;99.90
28654;DHT22;24320;56.980;24.336;2022-12-07T01:51:10;-1.20;99.90
28654;DHT22;24320;56.980;24.336;2022-12-07T01:53:41;-1.20;99.90
28654;DHT22;24320;56.980;24.336;2022-12-07T01:56:18;-1.20;99.90
28654;DHT22;24320;56.980;24.336;2022-12-07T01:58:47;-1.20;99.90
28654;DHT22;24320;56.980;24.336;2022-12-07T02:01:15;-1.20;99.90
28654;DHT22;24320;56.980;24.336;2022-12-07T02:03:43;-1.30;99.90
28654;DHT22;24320;56.980;24.336;2022-12-07T02:06:21;-1.30;99.90
28654;DHT22;24320;56.980;24.336;2022-12-07T02:08:49;-1.30;99.90
28654;DHT22;24320;56.980;24.336;2022-12-07T02:11:16;-1.30;99.90
28654;DHT22;24320;56.980;24.336;2022-12-07T02:13:44;-1.20;99.90
28654;DHT22;24320;56.980;24.336;2022-12-07T02:32:16;-1.20;99.90
28654;DHT22;24320;56.980;24.336;2022-12-07T02:34:49;-1.20;99.90
28654;DHT22;24320;56.980;24.336;2022-12-07T02:37:37;-1.20;99.90
28654;DHT22;24320;56.980;24.336;2022-12-07T02:42:49;-1.20;99.90
28654;DHT22;24320;56.980;24.336;2022-12-07T02:45:21;-1.20;99.90
28654;DHT22;24320;56.980;24.336;2022-12-07T02:47:51;-1.20;99.90
28654;DHT22;24320;56.980;24.336;2022-12-07T02:50:20;-1.20;99.90
28654;DHT22;24320;56.980;24.336;2022-12-07T02:52:47;-1.20;99.90
28654;DHT22;24320;56.980;24.336;2022-12-07T02:55:17;-1.20;99.90
28654;DHT22;24320;56.980;24.336;2022-12-07T02:57:54;-1.20;99.90
28654;DHT22;24320;56.980;24.336;2022-12-07T03:00:25;-1.20;99.90
28654;DHT22;24320;56.980;24.336;2022-12-07T03:03:10;-1.20;99.90
28654;DHT22;24320;56.980;24.336;2022-12-07T03:14:18;-1.10;99.90
28654;DHT22;24320;56.980;24.336;2022-12-07T03:17:18;-1.20;99.90
28654;DHT22;24320;56.980;24.336;2022-12-07T03:19:48;-1.20;99.90
28654;DHT22;24320;56.980;24.336;2022-12-07T03:22:17;-1.20;99.90
28654;DHT22;24320;56.980;24.336;2022-12-07T03:24:56;-1.20;99.90
28654;DHT22;24320;56.980;24.336;2022-12-07T03:27:33;-1.30;99.90
28654;DHT22;24320;56.980;24.336;2022-12-07T03:30:07;-1.20;99.90
28654;DHT22;24320;56.980;24.336;2022-12-07T03:32:44;-1.20;99.90
28654;DHT22;24320;56.980;24.336;2022-12-07T03:35:14;-1.20;99.90
28654;DHT22;24320;56.980;24.336;2022-12-07T03:37:51;-1.20;99.90
28654;DHT22;24320;56.980;24.336;2022-12-07T03:40:32;-1.20;99.90
28654;DHT22;24320;56.980;24.336;2022-12-07T03:43:01;-1.20;99.90
28654;DHT22;24320;56.980;24.336;2022-12-07T03:45:41;-1.10;99.90
28654;DHT22;24320;56.980;24.336;2022-12-07T03:48:24;-1.20;99.90
28654;DHT22;24320;56.980;24.336;2022-12-07T03:51:19;-1.20;99.90
28654;DHT22;24320;56.980;24.336;2022-12-07T03:53:57;-1.20;99.90
28654;DHT22;24320;56.980;24.336;2022-12-07T03:56:27;-1.20;99.90
28654;DHT22;24320;56.980;24.336;2022-12-07T03:58:54;-1.10;99.90
28654;DHT22;24320;56.980;24.336;2022-12-07T04:01:23;-1.10;99.90
28654;DHT22;24320;56.980;24.336;2022-12-07T04:03:50;-1.10;99.90
28654;DHT22;24320;56.980;24.336;2022-12-07T04:06:17;-1.20;99.90
28654;DHT22;24320;56.980;24.336;2022-12-07T04:08:44;-1.20;99.90
28654;DHT22;24320;56.980;24.336;2022-12-07T04:11:11;-1.20;99.90
28654;DHT22;24320;56.980;24.336;2022-12-07T04:13:38;-1.20;99.90
28654;DHT22;24320;56.980;24.336;2022-12-07T04:16:23;-1.10;99.90
28654;DHT22;24320;56.980;24.336;2022-12-07T04:18:50;-1.20;99.90
28654;DHT22;24320;56.980;24.336;2022-12-07T04:21:17;-1.20;99.90
28654;DHT22;24320;56.980;24.336;2022-12-07T04:23:44;-1.10;99.90
28654;DHT22;24320;56.980;24.336;2022-12-07T04:26:11;-1.20;99.90
28654;DHT22;24320;56.980;24.336;2022-12-07T04:28:38;-1.10;99.90
28654;DHT22;24320;56.980;24.336;2022-12-07T04:31:05;-1.20;99.90
28654;DHT22;24320;56.980;24.336;2022-12-07T04:33:32;-1.20;99.90
28654;DHT22;24320;56.980;24.336;2022-12-07T04:35:59;-1.20;99.90
28654;DHT22;24320;56.980;24.336;2022-12-07T04:38:26;-1.20;99.90
28654;DHT22;24320;56.980;24.336;2022-12-07T04:40:53;-1.20;99.90
28654;DHT22;24320;56.980;24.336;2022-12-07T04:43:20;-1.10;99.90
28654;DHT22;24320;56.980;24.336;2022-12-07T04:45:48;-1.10;99.90
28654;DHT22;24320;56.980;24.336;2022-12-07T04:48:15;-1.10;99.90
28654;DHT22;24320;56.980;24.336;2022-12-07T04:50:42;-1.10;99.90
28654;DHT22;24320;56.980;24.336;2022-12-07T04:53:12;-1.10;99.90
28654;DHT22;24320;56.980;24.336;2022-12-07T04:55:39;-1.10;99.90
28654;DHT22;24320;56.980;24.336;2022-12-07T04:58:06;-1.20;99.90
28654;DHT22;24320;56.980;24.336;2022-12-07T05:00:33;-1.20;99.90
28654;DHT22;24320;56.980;24.336;2022-12-07T05:03:00;-1.20;99.90
28654;DHT22;24320;56.980;24.336;2022-12-07T05:05:26;-1.20;99.90
28654;DHT22;24320;56.980;24.336;2022-12-07T05:10:31;-1.10;99.90
28654;DHT22;24320;56.980;24.336;2022-12-07T05:12:58;-1.20;99.90
28654;DHT22;24320;56.980;24.336;2022-12-07T05:15:25;-1.10;99.90
28654;DHT22;24320;56.980;24.336;2022-12-07T05:17:52;-1.20;99.90
28654;DHT22;24320;56.980;24.336;2022-12-07T05:20:19;-1.20;99.90
28654;DHT22;24320;56.980;24.336;2022-12-07T05:22:46;-1.20;99.90
28654;DHT22;24320;56.980;24.336;2022-12-07T05:25:13;-1.20;99.90
28654;DHT22;24320;56.980;24.336;2022-12-07T05:27:40;-1.20;99.90
28654;DHT22;24320;56.980;24.336;2022-12-07T05:30:08;-1.20;99.90
28654;DHT22;24320;56.980;24.336;2022-12-07T05:32:35;-1.20;99.90
28654;DHT22;24320;56.980;24.336;2022-12-07T05:35:02;-1.20;99.90
28654;DHT22;24320;56.980;24.336;2022-12-07T05:37:29;-1.20;99.90
28654;DHT22;24320;56.980;24.336;2022-12-07T05:39:56;-1.20;99.90
28654;DHT22;24320;56.980;24.336;2022-12-07T05:42:23;-1.20;99.90
28654;DHT22;24320;56.980;24.336;2022-12-07T05:44:49;-1.10;99.90
28654;DHT22;24320;56.980;24.336;2022-12-07T05:47:16;-1.10;99.90
28654;DHT22;24320;56.980;24.336;2022-12-07T05:49:44;-1.10;99.90
28654;DHT22;24320;56.980;24.336;2022-12-07T05:52:10;-1.10;99.90
28654;DHT22;24320;56.980;24.336;2022-12-07T05:54:37;-1.10;99.90
28654;DHT22;24320;56.980;24.336;2022-12-07T05:57:04;-1.10;99.90
28654;DHT22;24320;56.980;24.336;2022-12-07T05:59:31;-1.20;99.90
28654;DHT22;24320;56.980;24.336;2022-12-07T06:02:02;-1.20;99.90
28654;DHT22;24320;56.980;24.336;2022-12-07T06:04:33;-1.10;99.90
28654;DHT22;24320;56.980;24.336;2022-12-07T06:07:00;-1.10;99.90
28654;DHT22;24320;56.980;24.336;2022-12-07T06:09:28;-1.10;99.90
28654;DHT22;24320;56.980;24.336;2022-12-07T06:11:58;-1.10;99.90
28654;DHT22;24320;56.980;24.336;2022-12-07T06:14:44;-1.10;99.90
28654;DHT22;24320;56.980;24.336;2022-12-07T06:17:12;-1.10;99.90
28654;DHT22;24320;56.980;24.336;2022-12-07T06:19:39;-1.20;99.90
28654;DHT22;24320;56.980;24.336;2022-12-07T06:22:07;-1.20;99.90
28654;DHT22;24320;56.980;24.336;2022-12-07T06:24:36;-1.20;99.90
28654;DHT22;24320;56.980;24.336;2022-12-07T06:27:03;-1.20;99.90
28654;DHT22;24320;56.980;24.336;2022-12-07T06:29:30;-1.20;99.90
28654;DHT22;24320;56.980;24.336;2022-12-07T06:31:57;-1.10;99.90
28654;DHT22;24320;56.980;24.336;2022-12-07T06:34:25;-1.10;99.90
28654;DHT22;24320;56.980;24.336;2022-12-07T06:36:53;-1.10;99.90
28654;DHT22;24320;56.980;24.336;2022-12-07T06:39:24;-1.20;99.90
28654;DHT22;24320;56.980;24.336;2022-12-07T06:41:52;-1.20;99.90
28654;DHT22;24320;56.980;24.336;2022-12-07T06:44:21;-1.10;99.90
28654;DHT22;24320;56.980;24.336;2022-12-07T06:46:49;-1.20;99.90
28654;DHT22;24320;56.980;24.336;2022-12-07T06:49:16;-1.10;99.90
28654;DHT22;24320;56.980;24.336;2022-12-07T06:51:44;-1.10;99.90
28654;DHT22;24320;56.980;24.336;2022-12-07T06:54:12;-1.10;99.90
28654;DHT22;24320;56.980;24.336;2022-12-07T06:56:39;-1.10;99.90
28654;DHT22;24320;56.980;24.336;2022-12-07T06:59:07;-1.10;99.90
28654;DHT22;24320;56.980;24.336;2022-12-07T07:01:35;-1.10;99.90
28654;DHT22;24320;56.980;24.336;2022-12-07T07:04:02;-1.20;99.90
28654;DHT22;24320;56.980;24.336;2022-12-07T07:06:29;-1.20;99.90
28654;DHT22;24320;56.980;24.336;2022-12-07T07:08:56;-1.20;99.90
28654;DHT22;24320;56.980;24.336;2022-12-07T07:11:24;-1.20;99.90
28654;DHT22;24320;56.980;24.336;2022-12-07T07:13:50;-1.20;99.90
28654;DHT22;24320;56.980;24.336;2022-12-07T07:16:17;-1.20;99.90
28654;DHT22;24320;56.980;24.336;2022-12-07T07:18:44;-1.20;99.90
28654;DHT22;24320;56.980;24.336;2022-12-07T07:21:11;-1.10;99.90
28654;DHT22;24320;56.980;24.336;2022-12-07T07:23:38;-1.20;99.90
28654;DHT22;24320;56.980;24.336;2022-12-07T07:26:05;-1.20;99.90
28654;DHT22;24320;56.980;24.336;2022-12-07T07:28:32;-1.20;99.90
28654;DHT22;24320;56.980;24.336;2022-12-07T07:30:59;-1.10;99.90
28654;DHT22;24320;56.980;24.336;2022-12-07T07:33:26;-1.10;99.90
28654;DHT22;24320;56.980;24.336;2022-12-07T07:35:53;-1.10;99.90
28654;DHT22;24320;56.980;24.336;2022-12-07T07:38:20;-1.00;99.90
28654;DHT22;24320;56.980;24.336;2022-12-07T07:40:47;-1.00;99.90
28654;DHT22;24320;56.980;24.336;2022-12-07T07:43:14;-1.00;99.90
28654;DHT22;24320;56.980;24.336;2022-12-07T07:45:41;-1.00;99.90
28654;DHT22;24320;56.980;24.336;2022-12-07T07:48:08;-1.00;99.90
28654;DHT22;24320;56.980;24.336;2022-12-07T07:50:35;-1.00;99.90
28654;DHT22;24320;56.980;24.336;2022-12-07T07:53:02;-1.00;99.90
28654;DHT22;24320;56.980;24.336;2022-12-07T07:55:29;-1.00;99.90
28654;DHT22;24320;56.980;24.336;2022-12-07T07:57:56;-1.00;99.90
28654;DHT22;24320;56.980;24.336;2022-12-07T08:00:23;-1.00;99.90
28654;DHT22;24320;56.980;24.336;2022-12-07T08:02:50;-1.00;99.90
28654;DHT22;24320;56.980;24.336;2022-12-07T08:05:17;-1.00;99.90
28654;DHT22;24320;56.980;24.336;2022-12-07T08:07:44;-0.90;99.90
28654;DHT22;24320;56.980;24.336;2022-12-07T08:10:13;-1.00;99.90
28654;DHT22;24320;56.980;24.336;2022-12-07T08:12:42;-1.00;99.90
28654;DHT22;24320;56.980;24.336;2022-12-07T08:15:30;-1.00;99.90
28654;DHT22;24320;56.980;24.336;2022-12-07T08:17:57;-1.00;99.90
28654;DHT22;24320;56.980;24.336;2022-12-07T08:20:24;-0.90;99.90
28654;DHT22;24320;56.980;24.336;2022-12-07T08:22:52;-0.90;99.90
28654;DHT22;24320;56.980;24.336;2022-12-07T08:25:19;-1.00;99.90
28654;DHT22;24320;56.980;24.336;2022-12-07T08:27:46;-1.00;99.90
28654;DHT22;24320;56.980;24.336;2022-12-07T08:30:13;-1.00;99.90
28654;DHT22;24320;56.980;24.336;2022-12-07T08:32:40;-0.90;99.90
28654;DHT22;24320;56.980;24.336;2022-12-07T08:35:07;-0.90;99.90
28654;DHT22;24320;56.980;24.336;2022-12-07T08:37:34;-0.90;99.90
28654;DHT22;24320;56.980;24.336;2022-12-07T08:40:03;-0.90;99.90
28654;DHT22;24320;56.980;24.336;2022-12-07T08:42:31;-0.90;99.90
28654;DHT22;24320;56.980;24.336;2022-12-07T08:45:07;-0.90;99.90
28654;DHT22;24320;56.980;24.336;2022-12-07T08:47:43;-0.90;99.90
28654;DHT22;24320;56.980;24.336;2022-12-07T08:50:12;-0.90;99.90
28654;DHT22;24320;56.980;24.336;2022-12-07T08:52:40;-0.90;99.90
28654;DHT22;24320;56.980;24.336;2022-12-07T08:55:10;-0.90;99.90
28654;DHT22;24320;56.980;24.336;2022-12-07T08:57:38;-0.90;99.90
28654;DHT22;24320;56.980;24.336;2022-12-07T09:00:06;-0.90;99.90
28654;DHT22;24320;56.980;24.336;2022-12-07T09:02:34;-0.90;99.90
28654;DHT22;24320;56.980;24.336;2022-12-07T09:05:01;-0.90;99.90
28654;DHT22;24320;56.980;24.336;2022-12-07T09:07:30;-0.90;99.90
28654;DHT22;24320;56.980;24.336;2022-12-07T09:09:58;-0.90;99.90
28654;DHT22;24320;56.980;24.336;2022-12-07T09:12:26;-0.80;99.90
28654;DHT22;24320;56.980;24.336;2022-12-07T09:14:53;-0.80;99.90
28654;DHT22;24320;56.980;24.336;2022-12-07T09:17:20;-0.80;99.90
28654;DHT22;24320;56.980;24.336;2022-12-07T09:19:47;-0.80;99.90
28654;DHT22;24320;56.980;24.336;2022-12-07T09:22:14;-0.80;99.90
28654;DHT22;24320;56.980;24.336;2022-12-07T09:24:42;-0.80;99.90
28654;DHT22;24320;56.980;24.336;2022-12-07T09:27:10;-0.80;99.90
28654;DHT22;24320;56.980;24.336;2022-12-07T09:29:37;-0.80;99.90
28654;DHT22;24320;56.980;24.336;2022-12-07T09:32:04;-0.80;99.90
28654;DHT22;24320;56.980;24.336;2022-12-07T09:34:40;-0.80;99.90
28654;DHT22;24320;56.980;24.336;2022-12-07T09:37:07;-0.80;99.90
28654;DHT22;24320;56.980;24.336;2022-12-07T09:39:37;-0.70;99.90
28654;DHT22;24320;56.980;24.336;2022-12-07T09:42:05;-0.70;99.90
28654;DHT22;24320;56.980;24.336;2022-12-07T09:44:34;-0.70;99.90
28654;DHT22;24320;56.980;24.336;2022-12-07T09:47:02;-0.70;99.90
28654;DHT22;24320;56.980;24.336;2022-12-07T09:49:31;-0.70;99.90
28654;DHT22;24320;56.980;24.336;2022-12-07T09:54:36;-0.70;99.90
28654;DHT22;24320;56.980;24.336;2022-12-07T09:57:08;-0.70;99.90
28654;DHT22;24320;56.980;24.336;2022-12-07T09:59:37;-0.70;99.90
28654;DHT22;24320;56.980;24.336;2022-12-07T10:05:04;-0.70;99.90
28654;DHT22;24320;56.980;24.336;2022-12-07T10:07:32;-0.60;99.90
28654;DHT22;24320;56.980;24.336;2022-12-07T10:10:03;-0.60;99.90
28654;DHT22;24320;56.980;24.336;2022-12-07T10:12:30;-0.50;99.90
28654;DHT22;24320;56.980;24.336;2022-12-07T10:15:03;-0.50;99.90
28654;DHT22;24320;56.980;24.336;2022-12-07T10:17:48;-0.40;99.90
28654;DHT22;24320;56.980;24.336;2022-12-07T10:20:25;-0.40;99.90
28654;DHT22;24320;56.980;24.336;2022-12-07T10:22:58;-0.40;99.90
28654;DHT22;24320;56.980;24.336;2022-12-07T10:25:29;-0.30;99.90
28654;DHT22;24320;56.980;24.336;2022-12-07T10:30:59;-0.40;99.90
28654;DHT22;24320;56.980;24.336;2022-12-07T10:33:53;-0.50;99.90
28654;DHT22;24320;56.980;24.336;2022-12-07T10:39:14;-0.50;99.90
28654;DHT22;24320;56.980;24.336;2022-12-07T10:44:33;-0.50;99.90
28654;DHT22;24320;56.980;24.336;2022-12-07T10:49:55;-0.50;99.90
28654;DHT22;24320;56.980;24.336;2022-12-07T10:55:13;-0.50;99.90
28654;DHT22;24320;56.980;24.336;2022-12-07T10:58:27;-0.50;99.90
28654;DHT22;24320;56.980;24.336;2022-12-07T11:34:39;-0.60;99.90
28654;DHT22;24320;56.980;24.336;2022-12-07T11:37:16;-0.60;99.90
28654;DHT22;24320;56.980;24.336;2022-12-07T11:39:51;-0.60;99.90
28654;DHT22;24320;56.980;24.336;2022-12-07T11:42:24;-0.60;99.90
28654;DHT22;24320;56.980;24.336;2022-12-07T11:45:14;-0.70;99.90
28654;DHT22;24320;56.980;24.336;2022-12-07T11:48:03;-0.70;99.90
28654;DHT22;24320;56.980;24.336;2022-12-07T11:50:41;-0.70;99.90
28654;DHT22;24320;56.980;24.336;2022-12-07T12:06:40;-0.80;99.90
28654;DHT22;24320;56.980;24.336;2022-12-07T12:09:15;-0.80;99.90
28654;DHT22;24320;56.980;24.336;2022-12-07T12:12:20;-0.90;99.90
28654;DHT22;24320;56.980;24.336;2022-12-07T12:26:01;-0.90;99.90
28654;DHT22;24320;56.980;24.336;2022-12-07T12:31:38;-0.90;99.90
28654;DHT22;24320;56.980;24.336;2022-12-07T12:34:37;-0.90;99.90
28654;DHT22;24320;56.980;24.336;2022-12-07T12:42:54;-1.00;99.90
28654;DHT22;24320;56.980;24.336;2022-12-07T12:45:27;-1.00;99.90
28654;DHT22;24320;56.980;24.336;2022-12-07T12:47:56;-1.00;99.90
28654;DHT22;24320;56.980;24.336;2022-12-07T12:58:32;-1.10;99.90
28654;DHT22;24320;56.980;24.336;2022-12-07T13:03:55;-1.10;99.90
28654;DHT22;24320;56.980;24.336;2022-12-07T13:08:58;-1.20;99.90
28654;DHT22;24320;56.980;24.336;2022-12-07T13:11:40;-1.20;99.90
28654;DHT22;24320;56.980;24.336;2022-12-07T13:20:01;-1.30;99.90
28654;DHT22;24320;56.980;24.336;2022-12-07T13:25:09;-1.30;99.90
28654;DHT22;24320;56.980;24.336;2022-12-07T13:27:40;-1.40;99.90
28654;DHT22;24320;56.980;24.336;2022-12-07T13:30:20;-1.40;99.90
28654;DHT22;24320;56.980;24.336;2022-12-07T13:32:56;-1.40;99.90
28654;DHT22;24320;56.980;24.336;2022-12-07T13:35:35;-1.40;99.90
28654;DHT22;24320;56.980;24.336;2022-12-07T13:38:15;-1.40;99.90
28654;DHT22;24320;56.980;24.336;2022-12-07T13:46:18;-1.50;99.90
28654;DHT22;24320;56.980;24.336;2022-12-07T13:48:48;-1.50;99.90
28654;DHT22;24320;56.980;24.336;2022-12-07T13:51:26;-1.40;99.90
28654;DHT22;24320;56.980;24.336;2022-12-07T13:53:59;-1.50;99.90
28654;DHT22;24320;56.980;24.336;2022-12-07T13:56:33;-1.50;99.90
28654;DHT22;24320;56.980;24.336;2022-12-07T13:59:01;-1.50;99.90
28654;DHT22;24320;56.980;24.336;2022-12-07T14:01:31;-1.50;99.90
28654;DHT22;24320;56.980;24.336;2022-12-07T14:06:54;-1.60;99.90
28654;DHT22;24320;56.980;24.336;2022-12-07T14:09:23;-1.60;99.90
28654;DHT22;24320;56.980;24.336;2022-12-07T14:11:53;-1.60;99.90
28654;DHT22;24320;56.980;24.336;2022-12-07T14:14:27;-1.60;99.90
28654;DHT22;24320;56.980;24.336;2022-12-07T14:17:12;-1.60;99.90
28654;DHT22;24320;56.980;24.336;2022-12-07T14:20:00;-1.60;99.90
28654;DHT22;24320;56.980;24.336;2022-12-07T14:22:29;-1.70;99.90
28654;DHT22;24320;56.980;24.336;2022-12-07T14:25:20;-1.60;99.90
28654;DHT22;24320;56.980;24.336;2022-12-07T14:27:59;-1.60;99.90
28654;DHT22;24320;56.980;24.336;2022-12-07T14:30:32;-1.60;99.90
28654;DHT22;24320;56.980;24.336;2022-12-07T14:33:04;-1.60;99.90
28654;DHT22;24320;56.980;24.336;2022-12-07T14:35:32;-1.60;99.90
28654;DHT22;24320;56.980;24.336;2022-12-07T14:37:59;-1.60;99.90
28654;DHT22;24320;56.980;24.336;2022-12-07T14:40:28;-1.70;99.90
28654;DHT22;24320;56.980;24.336;2022-12-07T14:43:02;-1.70;99.90
28654;DHT22;24320;56.980;24.336;2022-12-07T14:45:30;-1.60;99.90
28654;DHT22;24320;56.980;24.336;2022-12-07T14:47:57;-1.70;99.90
28654;DHT22;24320;56.980;24.336;2022-12-07T14:50:48;-1.70;99.90
28654;DHT22;24320;56.980;24.336;2022-12-07T14:53:40;-1.70;99.90
28654;DHT22;24320;56.980;24.336;2022-12-07T14:56:07;-1.70;99.90
28654;DHT22;24320;56.980;24.336;2022-12-07T14:58:34;-1.70;99.90
28654;DHT22;24320;56.980;24.336;2022-12-07T15:01:02;-1.70;99.90
28654;DHT22;24320;56.980;24.336;2022-12-07T15:03:29;-1.70;99.90
28654;DHT22;24320;56.980;24.336;2022-12-07T15:05:57;-1.70;99.90
28654;DHT22;24320;56.980;24.336;2022-12-07T15:08:27;-1.70;99.90
28654;DHT22;24320;56.980;24.336;2022-12-07T15:10:54;-1.70;99.90
28654;DHT22;24320;56.980;24.336;2022-12-07T15:13:21;-1.70;99.90
28654;DHT22;24320;56.980;24.336;2022-12-07T15:16:11;-1.70;99.90
28654;DHT22;24320;56.980;24.336;2022-12-07T15:18:40;-1.70;99.90
28654;DHT22;24320;56.980;24.336;2022-12-07T15:21:24;-1.70;99.90
28654;DHT22;24320;56.980;24.336;2022-12-07T15:23:51;-1.70;99.90
28654;DHT22;24320;56.980;24.336;2022-12-07T15:26:18;-1.70;99.90
28654;DHT22;24320;56.980;24.336;2022-12-07T15:28:45;-1.70;99.90
28654;DHT22;24320;56.980;24.336;2022-12-07T15:31:18;-1.70;99.90
28654;DHT22;24320;56.980;24.336;2022-12-07T15:34:06;-1.70;99.90
28654;DHT22;24320;56.980;24.336;2022-12-07T15:36:34;-1.70;99.90
28654;DHT22;24320;56.980;24.336;2022-12-07T15:39:01;-1.70;99.90
28654;DHT22;24320;56.980;24.336;2022-12-07T15:41:40;-1.70;99.90
28654;DHT22;24320;56.980;24.336;2022-12-07T15:44:11;-1.70;99.90
28654;DHT22;24320;56.980;24.336;2022-12-07T15:46:57;-1.70;99.90
28654;DHT22;24320;56.980;24.336;2022-12-07T15:49:24;-1.70;99.90
28654;DHT22;24320;56.980;24.336;2022-12-07T15:51:51;-1.80;99.90
28654;DHT22;24320;56.980;24.336;2022-12-07T15:54:24;-1.70;99.90
28654;DHT22;24320;56.980;24.336;2022-12-07T15:56:52;-1.70;99.90
28654;DHT22;24320;56.980;24.336;2022-12-07T15:59:19;-1.70;99.90
28654;DHT22;24320;56.980;24.336;2022-12-07T16:01:46;-1.70;99.90
28654;DHT22;24320;56.980;24.336;2022-12-07T16:04:13;-1.70;99.90
28654;DHT22;24320;56.980;24.336;2022-12-07T16:06:41;-1.70;99.90
28654;DHT22;24320;56.980;24.336;2022-12-07T16:09:08;-1.70;99.90
28654;DHT22;24320;56.980;24.336;2022-12-07T16:11:35;-1.70;99.90
28654;DHT22;24320;56.980;24.336;2022-12-07T16:14:02;-1.70;99.90
28654;DHT22;24320;56.980;24.336;2022-12-07T16:16:30;-1.70;99.90
28654;DHT22;24320;56.980;24.336;2022-12-07T16:18:57;-1.70;99.90
28654;DHT22;24320;56.980;24.336;2022-12-07T16:21:25;-1.70;99.90
28654;DHT22;24320;56.980;24.336;2022-12-07T16:23:52;-1.70;99.90
28654;DHT22;24320;56.980;24.336;2022-12-07T16:26:21;-1.70;99.90
28654;DHT22;24320;56.980;24.336;2022-12-07T16:28:49;-1.70;99.90
28654;DHT22;24320;56.980;24.336;2022-12-07T16:31:22;-1.70;99.90
28654;DHT22;24320;56.980;24.336;2022-12-07T16:33:56;-1.70;99.90
28654;DHT22;24320;56.980;24.336;2022-12-07T16:36:24;-1.70;99.90
28654;DHT22;24320;56.980;24.336;2022-12-07T16:39:13;-1.70;99.90
28654;DHT22;24320;56.980;24.336;2022-12-07T16:41:40;-1.70;99.90
28654;DHT22;24320;56.980;24.336;2022-12-07T16:44:10;-1.70;99.90
28654;DHT22;24320;56.980;24.336;2022-12-07T16:46:39;-1.70;99.90
28654;DHT22;24320;56.980;24.336;2022-12-07T16:49:06;-1.70;99.90
28654;DHT22;24320;56.980;24.336;2022-12-07T16:51:34;-1.70;99.90
28654;DHT22;24320;56.980;24.336;2022-12-07T16:54:03;-1.70;99.90
28654;DHT22;24320;56.980;24.336;2022-12-07T16:56:30;-1.70;99.90
28654;DHT22;24320;56.980;24.336;2022-12-07T16:59:00;-1.60;99.90
28654;DHT22;24320;56.980;24.336;2022-12-07T17:01:27;-1.60;99.90
28654;DHT22;24320;56.980;24.336;2022-12-07T17:03:58;-1.60;99.90
28654;DHT22;24320;56.980;24.336;2022-12-07T17:06:27;-1.60;99.90
28654;DHT22;24320;56.980;24.336;2022-12-07T17:08:56;-1.70;99.90
28654;DHT22;24320;56.980;24.336;2022-12-07T17:11:29;-1.60;99.90
28654;DHT22;24320;56.980;24.336;2022-12-07T17:13:58;-1.70;99.90
28654;DHT22;24320;56.980;24.336;2022-12-07T17:16:43;-1.60;99.90
28654;DHT22;24320;56.980;24.336;2022-12-07T17:19:13;-1.60;99.90
28654;DHT22;24320;56.980;24.336;2022-12-07T17:21:41;-1.60;99.90
28654;DHT22;24320;56.980;24.336;2022-12-07T17:24:09;-1.60;99.90
28654;DHT22;24320;56.980;24.336;2022-12-07T17:26:37;-1.60;99.90
28654;DHT22;24320;56.980;24.336;2022-12-07T17:29:05;-1.60;99.90
28654;DHT22;24320;56.980;24.336;2022-12-07T17:31:33;-1.60;99.90
28654;DHT22;24320;56.980;24.336;2022-12-07T17:34:01;-1.60;99.90
28654;DHT22;24320;56.980;24.336;2022-12-07T17:36:29;-1.60;99.90
28654;DHT22;24320;56.980;24.336;2022-12-07T17:38:57;-1.60;99.90
28654;DHT22;24320;56.980;24.336;2022-12-07T17:41:26;-1.60;99.90
28654;DHT22;24320;56.980;24.336;2022-12-07T17:44:15;-1.60;99.90
28654;DHT22;24320;56.980;24.336;2022-12-07T17:46:42;-1.60;99.90
28654;DHT22;24320;56.980;24.336;2022-12-07T17:49:10;-1.60;99.90
28654;DHT22;24320;56.980;24.336;2022-12-07T17:51:37;-1.60;99.90
28654;DHT22;24320;56.980;24.336;2022-12-07T17:54:23;-1.60;99.90
28654;DHT22;24320;56.980;24.336;2022-12-07T17:56:50;-1.60;99.90
28654;DHT22;24320;56.980;24.336;2022-12-07T17:59:17;-1.60;99.90
28654;DHT22;24320;56.980;24.336;2022-12-07T18:01:45;-1.60;99.90
28654;DHT22;24320;56.980;24.336;2022-12-07T18:04:12;-1.60;99.90